Time;durP1;ratioP1;P1;durP2;ratioP2;P2;SDS_P1;SDS_P2;PMS_P1;PMS_P2;Temp;Humidity;BMP_temperature;BMP_pressure;BME280_temperature;BME280_humidity;BME280_pressure;Samples;Min_cycle;Max_cycle;Signal;HPM_P1;HPM_P2
2023/10/10 00:01:27;;;;;;;784.78;699.72;;;27.90;99.90;;;;;;5016040;28;20030;-68
2023/10/10 00:03:54;;;;;;;811.75;723.38;;;27.90;99.90;;;;;;5014875;28;20034;-69
2023/10/10 00:06:22;;;;;;;763.47;681.00;;;27.90;99.90;;;;;;5047775;28;20021;-70
2023/10/10 00:08:50;;;;;;;795.30;705.92;;;28.00;99.90;;;;;;5043206;28;20035;-69
2023/10/10 00:11:18;;;;;;;733.65;654.33;;;28.00;99.90;;;;;;5034325;28;20053;-70
2023/10/10 00:13:46;;;;;;;731.58;653.30;;;28.00;99.90;;;;;;5034388;28;20017;-71
2023/10/10 00:16:24;;;;;;;778.75;695.45;;;28.00;99.90;;;;;;5036183;28;20021;-73
2023/10/10 00:18:55;;;;;;;760.25;679.83;;;28.10;99.90;;;;;;5054442;28;20580;-70
2023/10/10 00:21:23;;;;;;;714.85;641.38;;;28.10;99.90;;;;;;5054494;28;20033;-72
2023/10/10 00:23:51;;;;;;;697.88;626.55;;;28.10;99.90;;;;;;5054089;28;20501;-70
2023/10/10 00:26:21;;;;;;;725.25;650.67;;;28.20;99.90;;;;;;5054097;28;20029;-68
2023/10/10 00:28:54;;;;;;;697.40;625.00;;;28.20;99.90;;;;;;5053551;28;20032;-68
2023/10/10 00:31:24;;;;;;;758.25;681.63;;;28.30;99.90;;;;;;5053796;28;20505;-68
2023/10/10 00:33:51;;;;;;;866.83;775.30;;;28.40;99.90;;;;;;5053664;28;20021;-71
2023/10/10 00:36:21;;;;;;;829.88;744.97;;;28.40;99.90;;;;;;5053926;28;20029;-71
2023/10/10 00:38:54;;;;;;;841.58;757.00;;;28.50;99.90;;;;;;5053819;28;20033;-65
2023/10/10 00:41:22;;;;;;;789.70;710.67;;;28.60;99.90;;;;;;5053577;28;20478;-65
2023/10/10 00:43:49;;;;;;;828.97;746.85;;;28.60;99.90;;;;;;5053750;28;20029;-65
2023/10/10 00:46:16;;;;;;;821.53;740.28;;;28.70;99.90;;;;;;5053791;28;20028;-65
2023/10/10 00:48:44;;;;;;;811.22;729.88;;;28.70;99.90;;;;;;5053451;28;20385;-65
2023/10/10 00:51:20;;;;;;;875.03;788.40;;;28.80;99.90;;;;;;5053925;28;20096;-65
2023/10/10 00:54:08;;;;;;;818.50;736.13;;;28.80;99.90;;;;;;5053428;28;20060;-65
2023/10/10 00:56:35;;;;;;;842.38;757.45;;;28.90;99.90;;;;;;5053596;28;20029;-65
2023/10/10 00:59:03;;;;;;;835.85;748.35;;;28.90;99.90;;;;;;5053450;28;20086;-64
2023/10/10 01:01:30;;;;;;;809.67;724.17;;;29.00;99.90;;;;;;5053729;28;20083;-64
2023/10/10 01:03:57;;;;;;;807.60;727.60;;;29.00;99.90;;;;;;5053403;28;20033;-65
2023/10/10 01:06:25;;;;;;;789.78;711.25;;;29.10;99.90;;;;;;5053179;28;20067;-64
2023/10/10 01:09:19;;;;;;;798.08;718.50;;;29.10;99.90;;;;;;5053417;28;20048;-65
2023/10/10 01:11:43;;;;;;;821.47;736.88;;;29.20;99.90;;;;;;5052684;28;20126;-65
2023/10/10 01:14:16;;;;;;;832.08;746.30;;;29.30;99.90;;;;;;5053567;28;20017;-65
2023/10/10 01:16:43;;;;;;;777.17;698.35;;;29.30;99.90;;;;;;5053176;28;20074;-64
2023/10/10 01:19:10;;;;;;;775.08;697.47;;;29.40;99.90;;;;;;5052703;28;20029;-65
2023/10/10 01:21:43;;;;;;;792.63;709.58;;;29.50;99.90;;;;;;5053123;28;20057;-64
2023/10/10 01:24:12;;;;;;;783.97;703.22;;;29.60;99.90;;;;;;5053161;28;20029;-64
2023/10/10 01:26:52;;;;;;;774.93;698.10;;;29.70;99.90;;;;;;5053217;28;20084;-64
2023/10/10 01:29:29;;;;;;;766.25;689.30;;;29.70;99.90;;;;;;5052982;28;20112;-64
2023/10/10 01:31:58;;;;;;;740.88;667.13;;;29.90;99.90;;;;;;5053018;28;20061;-65
2023/10/10 01:37:14;;;;;;;754.58;680.47;;;30.00;99.90;;;;;;5052872;28;20456;-65
2023/10/10 01:40:11;;;;;;;704.85;634.05;;;30.10;99.90;;;;;;5053031;28;20104;-64
2023/10/10 01:42:44;;;;;;;738.47;662.03;;;30.10;99.90;;;;;;5052950;28;20056;-64
2023/10/10 01:45:18;;;;;;;684.88;615.60;;;30.20;99.90;;;;;;5052903;28;20102;-64
2023/10/10 01:47:56;;;;;;;688.45;620.58;;;30.30;99.90;;;;;;5052899;28;20083;-64
2023/10/10 01:50:30;;;;;;;727.92;651.08;;;30.30;99.90;;;;;;5053353;28;20096;-65
2023/10/10 01:52:58;;;;;;;665.30;596.65;;;30.30;99.90;;;;;;5052781;28;20045;-64
2023/10/10 01:55:25;;;;;;;670.28;601.38;;;30.30;99.90;;;;;;5052977;28;20104;-65
2023/10/10 01:57:57;;;;;;;656.47;590.83;;;30.40;99.90;;;;;;5053507;28;20033;-64
2023/10/10 02:02:52;;;;;;;667.00;597.65;;;30.40;99.90;;;;;;5053713;28;20029;-64
2023/10/10 02:07:58;;;;;;;662.03;596.38;;;30.70;99.90;;;;;;5052849;28;20482;-65
2023/10/10 02:10:29;;;;;;;678.25;611.15;;;30.80;99.90;;;;;;5052823;28;20106;-64
2023/10/10 02:12:59;;;;;;;710.72;583.92;;;30.80;99.90;;;;;;5052766;28;20155;-64
2023/10/10 02:15:26;;;;;;;636.80;572.28;;;30.90;99.90;;;;;;5052844;28;20037;-64
2023/10/10 02:17:55;;;;;;;630.00;566.47;;;30.90;99.90;;;;;;5052805;28;20021;-65
2023/10/10 02:23:08;;;;;;;640.47;574.88;;;30.90;99.90;;;;;;5052742;28;20505;-64
2023/10/10 02:28:08;;;;;;;670.50;600.47;;;31.10;99.90;;;;;;5053261;28;20017;-65
2023/10/10 02:30:35;;;;;;;694.97;607.65;;;31.20;99.90;;;;;;5052960;28;20033;-65
2023/10/10 02:33:25;;;;;;;691.38;611.92;;;31.20;99.90;;;;;;5055866;28;20031;-64
2023/10/10 02:35:55;;;;;;;686.30;616.45;;;31.20;99.90;;;;;;5056795;28;20425;-63
2023/10/10 02:38:54;;;;;;;704.08;632.53;;;31.20;99.90;;;;;;5056660;28;20025;-63
2023/10/10 02:46:39;;;;;;;746.90;670.95;;;31.50;99.90;;;;;;5055997;28;20017;-65
2023/10/10 02:49:12;;;;;;;754.70;678.53;;;31.50;99.90;;;;;;5055876;28;20025;-65
2023/10/10 02:51:42;;;;;;;715.25;643.03;;;31.60;99.90;;;;;;5055877;28;20096;-65
2023/10/10 02:54:43;;;;;;;667.53;599.17;;;31.50;99.90;;;;;;5056721;28;20377;-65
2023/10/10 02:59:59;;;;;;;622.03;555.50;;;31.80;99.90;;;;;;5057247;28;20124;-66
2023/10/10 03:02:30;;;;;;;636.53;569.63;;;31.80;99.90;;;;;;5055909;28;20493;-63
2023/10/10 03:07:30;;;;;;;596.78;534.08;;;32.00;99.90;;;;;;5055871;28;20033;-66
2023/10/10 03:13:12;;;;;;;620.92;556.72;;;32.10;99.90;;;;;;5055460;28;20064;-66
2023/10/10 03:15:49;;;;;;;607.20;544.38;;;32.10;99.90;;;;;;5056124;28;20021;-66
2023/10/10 03:18:19;;;;;;;650.03;584.35;;;32.10;99.90;;;;;;5055745;28;20063;-65
2023/10/10 03:25:48;;;;;;;665.92;599.85;;;32.40;99.90;;;;;;5055503;28;20045;-66
2023/10/10 03:34:01;;;;;;;687.10;619.05;;;32.60;99.90;;;;;;5049214;28;20037;-66
2023/10/10 05:23:31;;;;;;;784.58;708.83;;;34.30;97.30;;;;;;4953190;29;20027;-64
2023/10/10 05:25:59;;;;;;;792.08;715.90;;;34.20;96.20;;;;;;4952782;29;20046;-65
2023/10/10 05:28:30;;;;;;;774.95;700.13;;;34.30;96.40;;;;;;4952778;29;20522;-65
2023/10/10 05:30:57;;;;;;;787.90;711.87;;;34.40;96.50;;;;;;4952929;29;20020;-69
2023/10/10 05:33:26;;;;;;;834.38;754.22;;;34.60;96.40;;;;;;5000778;28;20248;-65
2023/10/10 05:35:58;;;;;;;800.97;723.67;;;34.60;96.60;;;;;;5033169;28;20108;-69
2023/10/10 05:38:25;;;;;;;765.65;691.83;;;34.70;95.40;;;;;;5033074;28;20029;-69
2023/10/10 05:40:52;;;;;;;735.10;663.53;;;34.70;95.20;;;;;;5033376;28;20026;-66
2023/10/10 05:43:26;;;;;;;747.38;673.92;;;34.80;95.90;;;;;;5033128;28;20032;-66
2023/10/10 05:45:53;;;;;;;762.30;688.17;;;34.90;96.00;;;;;;5032712;28;20117;-69
2023/10/10 05:48:21;;;;;;;748.40;675.75;;;35.00;95.30;;;;;;5032947;28;20433;-64
2023/10/10 05:50:48;;;;;;;767.15;692.30;;;35.00;95.30;;;;;;5032777;28;20060;-67
2023/10/10 05:53:16;;;;;;;762.95;688.80;;;35.00;95.20;;;;;;5033228;28;20044;-64
2023/10/10 05:55:43;;;;;;;792.13;715.17;;;35.00;94.80;;;;;;5032885;28;20021;-66
2023/10/10 05:58:12;;;;;;;779.60;704.15;;;35.00;94.10;;;;;;5032738;28;20029;-65
2023/10/10 06:00:41;;;;;;;776.17;701.13;;;34.90;94.20;;;;;;5032698;28;20022;-66
2023/10/10 06:03:12;;;;;;;768.22;693.60;;;34.80;93.00;;;;;;5032655;28;20033;-65
2023/10/10 06:05:45;;;;;;;773.95;699.00;;;34.80;93.40;;;;;;5033597;28;20013;-63
2023/10/10 06:08:13;;;;;;;776.13;701.00;;;34.90;92.80;;;;;;5036375;28;21132;-69
2023/10/10 06:10:40;;;;;;;762.40;688.25;;;35.00;92.90;;;;;;5034083;28;20049;-66
2023/10/10 06:13:07;;;;;;;763.92;689.55;;;35.00;92.50;;;;;;5036702;28;20021;-65
2023/10/10 06:15:34;;;;;;;765.67;691.15;;;35.00;92.80;;;;;;5036516;28;20130;-67
2023/10/10 06:18:12;;;;;;;732.90;661.28;;;34.90;93.50;;;;;;5036340;28;20021;-66
2023/10/10 06:20:41;;;;;;;701.47;632.70;;;35.00;93.20;;;;;;5036731;28;20382;-66
2023/10/10 06:23:14;;;;;;;708.03;638.63;;;35.00;93.30;;;;;;5036412;28;20029;-66
2023/10/10 06:25:42;;;;;;;715.35;645.17;;;35.00;94.10;;;;;;5036400;28;20096;-67
2023/10/10 06:30:59;;;;;;;694.92;625.58;;;35.20;93.70;;;;;;5034495;28;20463;-67
2023/10/10 06:33:27;;;;;;;661.92;595.20;;;35.20;93.70;;;;;;5036301;28;20060;-67
2023/10/10 06:41:40;;;;;;;692.72;623.00;;;35.80;92.30;;;;;;5036591;28;20022;-69
2023/10/10 06:44:26;;;;;;;710.70;638.83;;;35.70;92.20;;;;;;5036689;28;20033;-69
2023/10/10 06:46:55;;;;;;;693.67;623.72;;;35.70;92.20;;;;;;5036093;28;20154;-66
2023/10/10 06:49:22;;;;;;;704.08;634.08;;;35.60;92.80;;;;;;5036237;28;20021;-67
2023/10/10 06:51:50;;;;;;;675.30;607.38;;;35.40;92.70;;;;;;5036172;28;20097;-67
2023/10/10 06:54:44;;;;;;;667.67;599.67;;;35.40;92.70;;;;;;5036118;28;20025;-66
2023/10/10 06:59:30;;;;;;;649.65;584.20;;;35.40;92.50;;;;;;5036549;28;20408;-67
2023/10/10 07:01:59;;;;;;;628.75;565.00;;;35.30;92.60;;;;;;5036106;28;20458;-66
2023/10/10 07:04:28;;;;;;;647.15;581.70;;;35.30;92.70;;;;;;5035949;28;20034;-66
2023/10/10 07:07:00;;;;;;;662.47;596.10;;;35.30;92.70;;;;;;5035983;28;20125;-67
2023/10/10 07:09:28;;;;;;;618.20;555.20;;;35.30;92.60;;;;;;5035692;28;20060;-65
2023/10/10 07:11:56;;;;;;;715.97;644.38;;;35.20;92.60;;;;;;5035963;28;20075;-70
2023/10/10 07:14:25;;;;;;;715.17;643.97;;;35.20;92.70;;;;;;5035892;28;20071;-70
2023/10/10 07:16:56;;;;;;;742.75;668.85;;;35.20;92.60;;;;;;5035302;28;20108;-65
2023/10/10 07:19:30;;;;;;;754.10;679.20;;;35.20;92.70;;;;;;5035970;28;20026;-65
2023/10/10 07:21:59;;;;;;;796.42;717.20;;;35.20;92.80;;;;;;5036074;28;20485;-69
2023/10/10 07:24:40;;;;;;;822.78;741.78;;;35.30;92.20;;;;;;5028270;28;20026;-66
2023/10/10 07:27:11;;;;;;;874.20;788.70;;;35.30;92.80;;;;;;5031004;28;20033;-66
2023/10/10 07:32:28;;;;;;;984.00;885.85;;;35.30;92.60;;;;;;5036464;28;20022;-66
2023/10/10 07:34:54;;;;;;;1036.07;932.03;;;35.20;92.40;;;;;;5029148;28;20033;-67
2023/10/10 07:37:23;;;;;;;1007.40;906.75;;;35.30;92.10;;;;;;5036270;28;20028;-69
2023/10/10 07:40:18;;;;;;;1068.20;960.72;;;35.30;92.70;;;;;;5036484;28;20033;-67
2023/10/10 07:42:37;;;;;;;1028.10;924.67;;;35.40;92.80;;;;;;5034608;28;20083;-67
2023/10/10 07:45:13;;;;;;;990.85;891.83;;;35.40;92.10;;;;;;5034062;28;20175;-66
2023/10/10 07:50:35;;;;;;;1175.13;999.90;;;35.40;92.10;;;;;;5033949;23;20033;-67
2023/10/10 07:53:05;;;;;;;1292.57;999.90;;;35.40;92.10;;;;;;5019241;28;20034;-67
2023/10/10 07:55:52;;;;;;;1305.68;999.90;;;35.40;91.60;;;;;;5023969;28;20190;-66
2023/10/10 07:58:23;;;;;;;1125.03;999.90;;;35.50;91.80;;;;;;5015744;28;20100;-67
2023/10/10 08:01:09;;;;;;;1147.57;999.90;;;35.60;92.10;;;;;;5016441;28;20080;-67
2023/10/10 08:03:44;;;;;;;1265.82;999.90;;;35.60;92.30;;;;;;5016692;28;20501;-67
2023/10/10 08:06:21;;;;;;;1281.55;999.90;;;35.60;92.50;;;;;;5034505;28;20056;-66
2023/10/10 08:11:37;;;;;;;1199.32;999.90;;;35.70;92.70;;;;;;4953031;28;20043;-67
2023/10/10 08:14:08;;;;;;;1242.32;999.90;;;35.70;92.60;;;;;;4954384;29;20488;-68
2023/10/10 08:16:36;;;;;;;1212.68;999.90;;;35.60;91.50;;;;;;4953089;29;20047;-70
2023/10/10 08:19:05;;;;;;;1356.85;999.90;;;35.60;91.90;;;;;;4954394;29;20457;-70
2023/10/10 08:21:53;;;;;;;1405.70;999.90;;;35.60;92.40;;;;;;4954752;29;20067;-65
2023/10/10 08:24:19;;;;;;;1405.82;999.90;;;35.60;91.80;;;;;;4955004;29;20050;-65
2023/10/10 08:26:46;;;;;;;1402.70;999.90;;;35.60;91.70;;;;;;4955276;29;20053;-65
2023/10/10 08:29:14;;;;;;;1397.75;999.90;;;35.60;92.50;;;;;;4954262;28;20031;-65
2023/10/10 08:31:42;;;;;;;1300.47;999.90;;;35.60;92.20;;;;;;4955037;29;20472;-68
2023/10/10 08:34:10;;;;;;;1405.53;999.90;;;35.60;92.20;;;;;;4954948;29;20066;-67
2023/10/10 08:36:43;;;;;;;1167.90;999.90;;;35.60;92.30;;;;;;4955156;29;20083;-68
2023/10/10 08:39:35;;;;;;;1334.38;999.90;;;35.60;92.30;;;;;;4954547;29;20404;-69
2023/10/10 08:41:56;;;;;;;1193.70;999.90;;;35.40;91.40;;;;;;4976748;28;20046;-68
2023/10/10 08:44:24;;;;;;;1210.00;999.90;;;35.40;92.40;;;;;;5024661;28;20113;-67
2023/10/10 08:46:55;;;;;;;979.15;881.53;;;35.40;92.40;;;;;;5034323;28;20033;-65
2023/10/10 08:49:22;;;;;;;1048.32;943.15;;;35.50;92.20;;;;;;5023567;28;20479;-67
2023/10/10 08:51:52;;;;;;;1149.97;999.90;;;35.40;92.30;;;;;;5034136;28;20399;-67
2023/10/10 08:54:20;;;;;;;1183.18;999.90;;;35.30;92.40;;;;;;5033946;28;20108;-68
2023/10/10 08:59:35;;;;;;;1379.03;999.90;;;35.30;92.50;;;;;;5033471;28;20367;-64
2023/10/10 09:02:15;;;;;;;1360.25;999.90;;;35.30;92.40;;;;;;5049962;28;20073;-64
2023/10/10 09:04:43;;;;;;;1168.53;999.90;;;35.30;93.10;;;;;;5053648;28;20032;-65
2023/10/10 09:07:20;;;;;;;1026.50;922.00;;;35.30;92.50;;;;;;5052607;28;20393;-65
2023/10/10 09:09:54;;;;;;;1079.45;969.17;;;35.30;92.80;;;;;;5033283;28;20091;-65
2023/10/10 09:12:23;;;;;;;1295.85;999.90;;;35.20;93.10;;;;;;5031795;28;20026;-68
2023/10/10 09:14:50;;;;;;;1280.20;999.90;;;34.80;93.10;;;;;;5041196;28;20025;-65
2023/10/10 09:17:35;;;;;;;1029.57;924.85;;;34.60;93.50;;;;;;5050994;28;20033;-65
2023/10/10 09:20:17;;;;;;;1095.97;984.22;;;34.40;93.20;;;;;;5031538;28;20107;-64
2023/10/10 09:22:51;;;;;;;991.78;892.05;;;34.20;93.90;;;;;;5033212;28;20093;-65
2023/10/10 09:25:20;;;;;;;936.85;842.70;;;34.20;94.00;;;;;;5032898;28;20053;-65
2023/10/10 09:27:59;;;;;;;968.10;870.88;;;34.10;93.90;;;;;;5030103;28;20029;-64
2023/10/10 09:30:59;;;;;;;1197.13;999.90;;;34.00;94.40;;;;;;5031525;28;20080;-64
2023/10/10 09:33:16;;;;;;;1342.18;999.90;;;34.00;95.00;;;;;;5030286;28;20029;-63
2023/10/10 09:35:48;;;;;;;1045.93;939.67;;;33.70;95.50;;;;;;5032427;28;20076;-65
2023/10/10 09:38:20;;;;;;;1251.40;999.90;;;33.30;96.00;;;;;;5031780;28;20037;-66
2023/10/10 09:40:48;;;;;;;1215.88;999.90;;;33.10;96.60;;;;;;5032990;28;20028;-65
2023/10/10 09:43:25;;;;;;;1206.40;999.90;;;33.00;97.10;;;;;;5033189;28;20413;-65
2023/10/10 09:45:58;;;;;;;1108.90;989.40;;;32.90;97.30;;;;;;5033045;28;20045;-64
2023/10/10 09:54:15;;;;;;;1096.30;983.60;;;32.50;97.90;;;;;;5030278;28;20018;-64
2023/10/10 09:56:53;;;;;;;1143.57;999.53;;;32.20;98.30;;;;;;5030616;28;20033;-64
2023/10/10 09:59:20;;;;;;;1369.30;999.90;;;32.00;99.00;;;;;;5030415;28;20033;-64
2023/10/10 10:01:48;;;;;;;1079.32;969.20;;;31.70;99.20;;;;;;5032490;28;20433;-64
2023/10/10 10:04:28;;;;;;;1100.60;989.08;;;31.50;99.60;;;;;;5032583;28;20079;-67
2023/10/10 10:07:12;;;;;;;1183.90;999.90;;;31.50;99.90;;;;;;5030898;28;20029;-66
2023/10/10 10:09:51;;;;;;;1355.00;999.90;;;31.60;99.90;;;;;;5011843;28;20386;-66
2023/10/10 10:12:47;;;;;;;1300.65;999.90;;;31.80;99.90;;;;;;5030144;28;20028;-66
2023/10/10 10:15:28;;;;;;;1368.32;999.90;;;31.90;99.90;;;;;;5031961;28;20156;-64
2023/10/10 10:18:11;;;;;;;1073.20;965.15;;;32.10;99.90;;;;;;5032311;28;20017;-64
2023/10/10 10:23:27;;;;;;;1397.40;999.90;;;31.90;99.90;;;;;;5015371;28;20054;-64
2023/10/10 10:28:56;;;;;;;1009.40;907.83;;;31.80;99.90;;;;;;4971702;28;20035;-66
2023/10/10 10:31:28;;;;;;;912.20;821.08;;;31.60;99.90;;;;;;4971923;28;20403;-65
2023/10/10 10:34:06;;;;;;;840.05;757.08;;;31.60;99.90;;;;;;4971552;28;20596;-67
2023/10/10 10:36:44;;;;;;;810.58;731.05;;;31.60;99.90;;;;;;4971327;28;20498;-66
2023/10/10 10:39:25;;;;;;;824.33;742.72;;;31.60;99.90;;;;;;4965169;28;20039;-64
2023/10/10 10:41:54;;;;;;;819.78;738.78;;;31.70;99.90;;;;;;4954497;28;20031;-67
2023/10/10 10:44:31;;;;;;;850.25;766.47;;;31.70;99.90;;;;;;4952414;29;20035;-66
2023/10/10 10:46:58;;;;;;;859.38;774.00;;;31.70;99.90;;;;;;4965365;28;20039;-68
2023/10/10 10:49:28;;;;;;;825.20;743.65;;;31.90;99.90;;;;;;4970990;28;20050;-66
2023/10/10 10:54:41;;;;;;;1363.63;999.90;;;31.70;99.90;;;;;;4973610;28;20030;-65
2023/10/10 10:57:07;;;;;;;944.78;850.97;;;31.70;99.90;;;;;;4974943;28;20042;-65
2023/10/10 10:59:35;;;;;;;900.67;811.20;;;31.70;99.90;;;;;;4973285;28;20106;-69
2023/10/10 11:02:14;;;;;;;991.08;891.45;;;31.80;99.90;;;;;;4963783;28;20031;-66
2023/10/10 11:04:43;;;;;;;991.20;891.88;;;31.80;99.90;;;;;;4956815;28;20039;-67
2023/10/10 11:07:15;;;;;;;1355.13;999.90;;;31.70;99.90;;;;;;5015831;28;20679;-65
2023/10/10 11:09:52;;;;;;;1304.45;999.90;;;31.80;99.90;;;;;;5049783;28;20038;-67
2023/10/10 11:12:21;;;;;;;1390.68;999.90;;;31.70;99.90;;;;;;5031080;28;20057;-66
2023/10/10 11:14:49;;;;;;;1242.05;999.90;;;31.70;99.90;;;;;;5035047;28;20031;-65
2023/10/10 11:17:18;;;;;;;1379.60;999.90;;;31.70;99.90;;;;;;5034916;28;20414;-65
2023/10/10 11:19:54;;;;;;;1347.53;999.90;;;31.70;99.90;;;;;;5035083;28;20444;-65
2023/10/10 11:25:04;;;;;;;1277.28;999.90;;;31.80;99.90;;;;;;5030383;28;20040;-66
2023/10/10 11:27:43;;;;;;;1392.30;999.90;;;31.80;99.90;;;;;;5034373;28;20029;-65
2023/10/10 11:30:12;;;;;;;1394.65;999.90;;;31.90;99.90;;;;;;5034829;28;20024;-64
2023/10/10 11:32:48;;;;;;;1388.53;999.90;;;31.80;99.90;;;;;;5032117;28;20100;-66
2023/10/10 11:35:26;;;;;;;1338.97;999.90;;;31.80;99.90;;;;;;5032520;28;20567;-65
2023/10/10 11:40:40;;;;;;;1144.63;999.90;;;31.70;99.90;;;;;;5034173;28;20053;-65
2023/10/10 11:43:11;;;;;;;1071.15;961.65;;;31.70;99.90;;;;;;5034518;28;20057;-66
2023/10/10 11:45:39;;;;;;;1231.37;999.90;;;31.80;99.90;;;;;;5034436;28;20055;-66
2023/10/10 11:48:17;;;;;;;1311.22;999.90;;;31.70;99.90;;;;;;5031997;28;20436;-67
2023/10/10 11:50:45;;;;;;;1501.25;999.90;;;31.60;99.90;;;;;;5031565;28;20033;-66
2023/10/10 11:53:19;;;;;;;1397.85;999.90;;;31.50;99.90;;;;;;5034004;28;20071;-66
2023/10/10 11:55:47;;;;;;;1315.50;999.90;;;31.40;99.90;;;;;;5031642;28;20018;-68
2023/10/10 11:58:35;;;;;;;1526.57;999.90;;;31.30;99.90;;;;;;5033902;28;20029;-66
2023/10/10 12:01:03;;;;;;;1454.68;999.90;;;31.40;99.90;;;;;;5033285;28;20028;-65
2023/10/10 12:04:04;;;;;;;1369.38;999.90;;;31.40;99.90;;;;;;5034037;28;20025;-65
2023/10/10 12:06:19;;;;;;;1366.22;999.90;;;31.40;99.90;;;;;;5031100;28;20382;-64
2023/10/10 12:08:50;;;;;;;1477.63;999.90;;;31.30;99.90;;;;;;5033026;28;20033;-70
2023/10/10 12:11:25;;;;;;;1582.82;999.90;;;31.30;99.90;;;;;;5033234;28;20022;-65
2023/10/10 12:13:53;;;;;;;1329.50;999.90;;;31.30;99.90;;;;;;5030556;28;20363;-66
2023/10/10 12:16:23;;;;;;;1238.78;999.90;;;31.30;99.90;;;;;;5032316;28;20041;-66
2023/10/10 12:18:50;;;;;;;1200.75;999.90;;;31.20;99.90;;;;;;5034049;28;20056;-67
2023/10/10 12:21:21;;;;;;;1387.68;999.90;;;31.20;99.90;;;;;;5034218;28;20024;-67
2023/10/10 12:23:50;;;;;;;1603.43;999.90;;;31.10;99.90;;;;;;5034020;28;20029;-66
2023/10/10 12:26:18;;;;;;;1510.30;999.90;;;31.00;99.90;;;;;;5034235;28;20051;-66
2023/10/10 12:28:48;;;;;;;1487.53;999.90;;;30.90;99.90;;;;;;5032546;28;20037;-65
2023/10/10 12:31:16;;;;;;;1323.13;999.90;;;30.80;99.90;;;;;;5034122;28;20228;-66
2023/10/10 12:33:48;;;;;;;1356.63;999.90;;;30.70;99.90;;;;;;5034292;28;20021;-65
2023/10/10 12:36:16;;;;;;;1101.40;990.15;;;30.60;99.90;;;;;;5030531;28;20029;-65
2023/10/10 12:38:44;;;;;;;989.03;890.92;;;30.60;99.90;;;;;;5033351;28;20026;-65
2023/10/10 12:41:11;;;;;;;1360.07;999.90;;;30.60;99.90;;;;;;5032663;28;20024;-63
2023/10/10 12:43:38;;;;;;;1279.60;999.90;;;30.60;99.90;;;;;;5032399;28;20083;-70
2023/10/10 12:46:07;;;;;;;1018.88;916.10;;;30.60;99.90;;;;;;5033165;28;20029;-63
2023/10/10 12:48:46;;;;;;;1077.88;969.22;;;30.50;99.90;;;;;;5031018;28;20032;-64
2023/10/10 12:51:14;;;;;;;1142.80;999.90;;;30.50;99.90;;;;;;5030021;28;20053;-65
2023/10/10 12:53:42;;;;;;;1125.45;999.90;;;30.50;99.90;;;;;;5030976;28;20028;-65
2023/10/10 12:56:16;;;;;;;1271.50;999.90;;;30.50;99.90;;;;;;5030695;28;20028;-65
2023/10/10 12:58:51;;;;;;;1171.97;999.90;;;30.50;99.90;;;;;;5029816;28;20029;-64
2023/10/10 13:01:32;;;;;;;1119.47;999.90;;;30.40;99.90;;;;;;5034389;28;20060;-65
2023/10/10 13:03:59;;;;;;;1061.03;954.72;;;30.40;99.90;;;;;;5033960;28;20025;-64
2023/10/10 13:06:28;;;;;;;1041.20;936.10;;;30.40;99.90;;;;;;5033240;28;20025;-65
2023/10/10 13:11:35;;;;;;;1015.05;915.00;;;30.40;99.90;;;;;;5032994;28;20052;-65
2023/10/10 13:14:15;;;;;;;964.13;867.58;;;30.40;99.90;;;;;;5033033;28;20034;-65
2023/10/10 13:19:11;;;;;;;951.17;856.35;;;30.40;99.90;;;;;;5033280;28;20017;-64
2023/10/10 13:21:40;;;;;;;1088.38;979.33;;;30.40;99.90;;;;;;5032468;28;20064;-67
2023/10/10 13:24:18;;;;;;;1071.00;964.22;;;30.40;99.90;;;;;;5031872;28;20478;-66
2023/10/10 13:26:49;;;;;;;1107.35;998.38;;;30.40;99.90;;;;;;5032630;28;20026;-66
2023/10/10 13:29:16;;;;;;;1038.50;936.03;;;30.40;99.90;;;;;;5032568;28;20414;-65
2023/10/10 13:31:45;;;;;;;979.08;881.97;;;30.40;99.90;;;;;;5030257;28;20029;-66
2023/10/10 13:34:13;;;;;;;1006.45;906.95;;;30.40;99.90;;;;;;5033227;28;20072;-64
2023/10/10 13:36:40;;;;;;;901.58;812.67;;;30.40;99.90;;;;;;5033387;28;20026;-67
2023/10/10 13:39:08;;;;;;;834.65;752.15;;;30.40;99.90;;;;;;5022792;28;20033;-65
2023/10/10 13:41:37;;;;;;;1001.65;901.75;;;30.40;99.90;;;;;;5027431;28;20371;-65
2023/10/10 13:44:04;;;;;;;1376.20;999.90;;;30.30;99.90;;;;;;5033255;28;20037;-65
2023/10/10 13:46:33;;;;;;;1355.38;999.90;;;30.30;99.90;;;;;;5016893;28;20037;-66
2023/10/10 13:48:59;;;;;;;1128.88;995.55;;;30.30;99.90;;;;;;5013513;28;20368;-64
2023/10/10 13:51:51;;;;;;;1414.68;999.90;;;30.20;99.90;;;;;;5012882;28;20038;-65
2023/10/10 13:54:19;;;;;;;1359.35;999.90;;;30.20;99.90;;;;;;5013298;28;20100;-63
2023/10/10 13:56:46;;;;;;;1474.10;999.90;;;30.20;99.90;;;;;;5013466;28;20042;-64
2023/10/10 13:59:17;;;;;;;1397.90;999.90;;;30.10;99.90;;;;;;5013561;28;20034;-66
2023/10/10 14:02:03;;;;;;;1520.05;999.90;;;30.10;99.90;;;;;;4991818;28;20042;-64
2023/10/10 14:04:45;;;;;;;1364.68;999.90;;;30.10;99.90;;;;;;4975246;28;20455;-63
2023/10/10 14:07:14;;;;;;;1374.55;999.90;;;30.10;99.90;;;;;;4991724;28;20034;-64
2023/10/10 14:09:41;;;;;;;1490.68;999.90;;;30.10;99.90;;;;;;4975710;28;20038;-63
2023/10/10 14:12:20;;;;;;;1483.00;999.90;;;30.10;99.90;;;;;;4927384;28;20026;-64
2023/10/10 14:14:48;;;;;;;1327.97;999.90;;;30.20;99.90;;;;;;4974081;28;20029;-64
2023/10/10 14:17:17;;;;;;;1350.15;999.90;;;30.20;99.90;;;;;;4990708;28;20030;-64
2023/10/10 14:19:44;;;;;;;1343.90;999.90;;;30.30;99.90;;;;;;4990531;28;20035;-64
2023/10/10 14:22:13;;;;;;;1329.93;999.90;;;30.30;99.90;;;;;;4988226;28;20868;-63
2023/10/10 14:24:43;;;;;;;1279.32;999.90;;;30.40;99.90;;;;;;4991031;28;20026;-64
2023/10/10 14:27:17;;;;;;;1440.93;999.90;;;30.40;99.90;;;;;;4988945;28;20081;-65
2023/10/10 14:29:45;;;;;;;1306.05;999.90;;;30.40;99.90;;;;;;4977938;28;21106;-63
2023/10/10 14:32:14;;;;;;;1125.60;998.92;;;30.30;99.90;;;;;;4976998;28;20073;-64
2023/10/10 14:34:41;;;;;;;1359.63;999.90;;;30.40;99.90;;;;;;4994745;28;20085;-63
2023/10/10 14:37:09;;;;;;;1232.78;999.90;;;30.40;99.90;;;;;;4978271;28;20076;-64
2023/10/10 14:39:44;;;;;;;1270.75;999.90;;;30.30;99.90;;;;;;4994857;28;20530;-64
2023/10/10 14:42:13;;;;;;;1169.75;999.90;;;30.30;99.90;;;;;;4992206;28;20391;-64
2023/10/10 14:44:40;;;;;;;1247.80;999.90;;;30.40;99.90;;;;;;4995088;28;20066;-64
2023/10/10 14:47:09;;;;;;;1154.38;999.90;;;30.40;99.90;;;;;;4995025;28;20026;-64
2023/10/10 14:49:38;;;;;;;1156.65;999.90;;;30.40;99.90;;;;;;4994634;28;20042;-63
2023/10/10 14:52:06;;;;;;;1092.78;982.90;;;30.40;99.90;;;;;;5012362;28;20497;-64
2023/10/10 14:54:37;;;;;;;1002.47;902.00;;;30.40;99.90;;;;;;5036188;28;20025;-64
2023/10/10 14:57:06;;;;;;;1006.78;905.38;;;30.40;99.90;;;;;;5019368;28;20040;-65
2023/10/10 14:59:35;;;;;;;986.15;887.40;;;30.50;99.90;;;;;;5016730;28;20441;-66
2023/10/10 15:02:04;;;;;;;992.85;894.67;;;30.50;99.90;;;;;;5001634;28;20482;-61
2023/10/10 15:04:33;;;;;;;1018.13;917.92;;;30.50;99.90;;;;;;5036021;28;20040;-65
2023/10/10 15:07:04;;;;;;;1011.25;910.78;;;30.50;99.90;;;;;;5019993;28;20025;-67
2023/10/10 15:09:35;;;;;;;1038.97;936.00;;;30.50;99.90;;;;;;5035447;28;20033;-67
2023/10/10 15:12:08;;;;;;;1161.63;999.90;;;30.40;99.90;;;;;;5035845;28;20442;-67
2023/10/10 15:14:35;;;;;;;1140.68;999.90;;;30.40;99.90;;;;;;5035877;28;20035;-65
2023/10/10 15:17:04;;;;;;;985.63;888.38;;;30.50;99.90;;;;;;5036010;28;20025;-66
2023/10/10 15:19:32;;;;;;;939.03;847.08;;;30.50;99.90;;;;;;5035658;28;20060;-65
2023/10/10 15:21:59;;;;;;;923.30;833.28;;;30.50;99.90;;;;;;5017399;28;20033;-67
2023/10/10 15:24:27;;;;;;;950.15;857.55;;;30.60;99.90;;;;;;4955544;29;20137;-66
2023/10/10 15:26:55;;;;;;;954.10;860.42;;;30.60;99.90;;;;;;4949810;29;20091;-67
2023/10/10 15:29:26;;;;;;;948.92;856.92;;;30.60;99.90;;;;;;4955425;29;20413;-66
2023/10/10 15:31:56;;;;;;;976.33;880.55;;;30.60;99.90;;;;;;4954980;29;20559;-65
2023/10/10 15:34:23;;;;;;;1059.18;955.42;;;30.60;99.90;;;;;;4955456;29;20042;-66
2023/10/10 15:36:54;;;;;;;1121.85;999.90;;;30.60;99.90;;;;;;4946835;29;20493;-67